sensor_id;sensor_type;location;lat;lon;timestamp;P1;durP1;ratioP1;P2;durP2;ratioP2
21297;SDS011;10808;48.010;11.326;2022-09-27T00:00:32;2.95;;;1.58;;
21297;SDS011;10808;48.010;11.326;2022-09-27T00:02:58;3.33;;;1.73;;
21297;SDS011;10808;48.010;11.326;2022-09-27T00:05:24;1.58;;;1.48;;
21297;SDS011;10808;48.010;11.326;2022-09-27T00:07:51;1.70;;;1.60;;
21297;SDS011;10808;48.010;11.326;2022-09-27T00:10:17;2.33;;;1.40;;
21297;SDS011;10808;48.010;11.326;2022-09-27T00:12:44;2.25;;;1.40;;
21297;SDS011;10808;48.010;11.326;2022-09-27T00:15:10;1.98;;;1.50;;
21297;SDS011;10808;48.010;11.326;2022-09-27T00:17:37;3.85;;;1.80;;
21297;SDS011;10808;48.010;11.326;2022-09-27T00:20:03;2.60;;;1.50;;
21297;SDS011;10808;48.010;11.326;2022-09-27T00:22:33;3.47;;;1.50;;
21297;SDS011;10808;48.010;11.326;2022-09-27T00:25:00;2.70;;;1.60;;
21297;SDS011;10808;48.010;11.326;2022-09-27T00:27:26;2.23;;;1.57;;
21297;SDS011;10808;48.010;11.326;2022-09-27T00:29:54;2.43;;;1.53;;
21297;SDS011;10808;48.010;11.326;2022-09-27T00:32:20;1.80;;;1.60;;
21297;SDS011;10808;48.010;11.326;2022-09-27T00:34:46;2.90;;;1.60;;
21297;SDS011;10808;48.010;11.326;2022-09-27T00:37:12;1.70;;;1.45;;
21297;SDS011;10808;48.010;11.326;2022-09-27T00:39:38;1.83;;;1.60;;
21297;SDS011;10808;48.010;11.326;2022-09-27T00:42:05;3.43;;;1.63;;
21297;SDS011;10808;48.010;11.326;2022-09-27T00:49:47;1.77;;;1.67;;
21297;SDS011;10808;48.010;11.326;2022-09-27T00:52:26;1.97;;;1.70;;
21297;SDS011;10808;48.010;11.326;2022-09-27T00:55:09;2.20;;;1.80;;
21297;SDS011;10808;48.010;11.326;2022-09-27T00:57:40;3.10;;;2.00;;
21297;SDS011;10808;48.010;11.326;2022-09-27T01:00:09;3.13;;;2.08;;
21297;SDS011;10808;48.010;11.326;2022-09-27T01:02:37;3.30;;;2.00;;
21297;SDS011;10808;48.010;11.326;2022-09-27T01:05:07;3.80;;;2.20;;
21297;SDS011;10808;48.010;11.326;2022-09-27T01:07:35;3.83;;;2.10;;
21297;SDS011;10808;48.010;11.326;2022-09-27T01:10:01;3.58;;;2.20;;
21297;SDS011;10808;48.010;11.326;2022-09-27T01:17:45;3.90;;;2.33;;
21297;SDS011;10808;48.010;11.326;2022-09-27T01:23:32;3.22;;;2.53;;
21297;SDS011;10808;48.010;11.326;2022-09-27T01:42:38;4.65;;;2.30;;
21297;SDS011;10808;48.010;11.326;2022-09-27T01:45:22;2.60;;;2.40;;
21297;SDS011;10808;48.010;11.326;2022-09-27T01:47:56;4.20;;;2.58;;
21297;SDS011;10808;48.010;11.326;2022-09-27T01:50:33;4.53;;;2.40;;
21297;SDS011;10808;48.010;11.326;2022-09-27T01:53:06;3.08;;;2.42;;
21297;SDS011;10808;48.010;11.326;2022-09-27T01:55:37;3.17;;;2.70;;
21297;SDS011;10808;48.010;11.326;2022-09-27T02:00:43;4.63;;;2.67;;
21297;SDS011;10808;48.010;11.326;2022-09-27T02:03:13;5.30;;;2.40;;
21297;SDS011;10808;48.010;11.326;2022-09-27T02:05:53;5.43;;;2.70;;
21297;SDS011;10808;48.010;11.326;2022-09-27T02:08:58;3.50;;;2.67;;
21297;SDS011;10808;48.010;11.326;2022-09-27T02:11:18;3.97;;;2.60;;
21297;SDS011;10808;48.010;11.326;2022-09-27T02:13:46;3.53;;;2.63;;
21297;SDS011;10808;48.010;11.326;2022-09-27T02:16:32;3.50;;;2.60;;
21297;SDS011;10808;48.010;11.326;2022-09-27T02:19:11;2.92;;;2.60;;
21297;SDS011;10808;48.010;11.326;2022-09-27T02:21:50;3.20;;;2.60;;
21297;SDS011;10808;48.010;11.326;2022-09-27T02:24:20;3.40;;;2.67;;
21297;SDS011;10808;48.010;11.326;2022-09-27T02:26:52;4.07;;;2.80;;
21297;SDS011;10808;48.010;11.326;2022-09-27T02:29:33;3.55;;;2.70;;
21297;SDS011;10808;48.010;11.326;2022-09-27T02:32:05;3.00;;;2.70;;
21297;SDS011;10808;48.010;11.326;2022-09-27T02:34:31;6.03;;;2.70;;
21297;SDS011;10808;48.010;11.326;2022-09-27T02:37:00;3.90;;;2.92;;
21297;SDS011;10808;48.010;11.326;2022-09-27T02:39:26;3.72;;;2.95;;
21297;SDS011;10808;48.010;11.326;2022-09-27T02:41:52;3.70;;;2.80;;
21297;SDS011;10808;48.010;11.326;2022-09-27T02:44:22;3.20;;;2.80;;
21297;SDS011;10808;48.010;11.326;2022-09-27T02:50:19;4.75;;;3.05;;
21297;SDS011;10808;48.010;11.326;2022-09-27T02:53:04;7.35;;;3.33;;
21297;SDS011;10808;48.010;11.326;2022-09-27T02:55:43;3.13;;;2.80;;
21297;SDS011;10808;48.010;11.326;2022-09-27T03:00:52;4.38;;;3.13;;
21297;SDS011;10808;48.010;11.326;2022-09-27T03:06:10;4.53;;;3.03;;
21297;SDS011;10808;48.010;11.326;2022-09-27T03:08:40;3.53;;;3.10;;
21297;SDS011;10808;48.010;11.326;2022-09-27T03:11:08;4.18;;;3.53;;
21297;SDS011;10808;48.010;11.326;2022-09-27T03:13:34;3.63;;;3.10;;
21297;SDS011;10808;48.010;11.326;2022-09-27T03:16:04;4.60;;;3.50;;
21297;SDS011;10808;48.010;11.326;2022-09-27T03:18:31;3.83;;;3.00;;
21297;SDS011;10808;48.010;11.326;2022-09-27T03:20:58;4.18;;;3.15;;
21297;SDS011;10808;48.010;11.326;2022-09-27T03:23:24;4.30;;;2.88;;
21297;SDS011;10808;48.010;11.326;2022-09-27T03:25:50;4.70;;;3.00;;
21297;SDS011;10808;48.010;11.326;2022-09-27T03:28:16;4.50;;;3.17;;
21297;SDS011;10808;48.010;11.326;2022-09-27T03:30:43;4.65;;;3.13;;
21297;SDS011;10808;48.010;11.326;2022-09-27T03:33:11;4.15;;;3.08;;
21297;SDS011;10808;48.010;11.326;2022-09-27T03:35:37;4.60;;;2.95;;
21297;SDS011;10808;48.010;11.326;2022-09-27T03:38:04;3.80;;;3.25;;
21297;SDS011;10808;48.010;11.326;2022-09-27T03:40:31;3.92;;;3.08;;
21297;SDS011;10808;48.010;11.326;2022-09-27T03:42:58;4.70;;;3.30;;
21297;SDS011;10808;48.010;11.326;2022-09-27T03:45:24;4.50;;;3.10;;
21297;SDS011;10808;48.010;11.326;2022-09-27T03:47:50;3.95;;;2.80;;
21297;SDS011;10808;48.010;11.326;2022-09-27T03:50:16;4.17;;;3.23;;
21297;SDS011;10808;48.010;11.326;2022-09-27T03:52:42;3.63;;;3.25;;
21297;SDS011;10808;48.010;11.326;2022-09-27T03:55:09;4.53;;;3.17;;
21297;SDS011;10808;48.010;11.326;2022-09-27T03:57:36;4.03;;;2.95;;
21297;SDS011;10808;48.010;11.326;2022-09-27T04:00:03;4.93;;;3.47;;
21297;SDS011;10808;48.010;11.326;2022-09-27T04:02:31;4.65;;;3.47;;
21297;SDS011;10808;48.010;11.326;2022-09-27T04:04:57;4.70;;;3.15;;
21297;SDS011;10808;48.010;11.326;2022-09-27T04:07:23;4.30;;;3.10;;
21297;SDS011;10808;48.010;11.326;2022-09-27T04:09:49;4.30;;;2.92;;
21297;SDS011;10808;48.010;11.326;2022-09-27T04:12:16;3.53;;;2.92;;
21297;SDS011;10808;48.010;11.326;2022-09-27T04:14:42;3.50;;;3.20;;
21297;SDS011;10808;48.010;11.326;2022-09-27T04:17:08;5.32;;;3.60;;
21297;SDS011;10808;48.010;11.326;2022-09-27T04:19:34;4.88;;;3.20;;
21297;SDS011;10808;48.010;11.326;2022-09-27T04:22:01;3.95;;;3.13;;
21297;SDS011;10808;48.010;11.326;2022-09-27T04:24:27;3.90;;;3.33;;
21297;SDS011;10808;48.010;11.326;2022-09-27T04:26:53;3.50;;;3.13;;
21297;SDS011;10808;48.010;11.326;2022-09-27T04:29:19;4.25;;;3.20;;
21297;SDS011;10808;48.010;11.326;2022-09-27T04:31:46;4.40;;;3.42;;
21297;SDS011;10808;48.010;11.326;2022-09-27T04:34:12;5.65;;;3.70;;
21297;SDS011;10808;48.010;11.326;2022-09-27T04:36:38;4.77;;;3.30;;
21297;SDS011;10808;48.010;11.326;2022-09-27T04:39:05;5.55;;;3.33;;
21297;SDS011;10808;48.010;11.326;2022-09-27T04:41:33;4.00;;;3.38;;
21297;SDS011;10808;48.010;11.326;2022-09-27T04:44:01;3.50;;;3.00;;
21297;SDS011;10808;48.010;11.326;2022-09-27T04:46:27;4.63;;;3.30;;
21297;SDS011;10808;48.010;11.326;2022-09-27T04:48:58;4.35;;;3.13;;
21297;SDS011;10808;48.010;11.326;2022-09-27T04:51:25;4.60;;;3.27;;
21297;SDS011;10808;48.010;11.326;2022-09-27T04:53:51;3.88;;;2.97;;
21297;SDS011;10808;48.010;11.326;2022-09-27T04:56:18;3.38;;;2.20;;
21297;SDS011;10808;48.010;11.326;2022-09-27T04:58:44;2.60;;;1.80;;
21297;SDS011;10808;48.010;11.326;2022-09-27T05:01:10;1.65;;;1.40;;
21297;SDS011;10808;48.010;11.326;2022-09-27T05:03:36;1.88;;;1.50;;
21297;SDS011;10808;48.010;11.326;2022-09-27T05:06:03;1.63;;;1.52;;
21297;SDS011;10808;48.010;11.326;2022-09-27T05:08:29;1.75;;;1.50;;
21297;SDS011;10808;48.010;11.326;2022-09-27T05:10:55;1.80;;;1.30;;
21297;SDS011;10808;48.010;11.326;2022-09-27T05:13:21;1.60;;;1.10;;
21297;SDS011;10808;48.010;11.326;2022-09-27T05:15:47;1.80;;;1.10;;
21297;SDS011;10808;48.010;11.326;2022-09-27T05:18:14;2.45;;;1.00;;
21297;SDS011;10808;48.010;11.326;2022-09-27T05:20:40;1.42;;;0.90;;
21297;SDS011;10808;48.010;11.326;2022-09-27T05:23:06;1.80;;;0.90;;
21297;SDS011;10808;48.010;11.326;2022-09-27T05:25:33;1.27;;;0.80;;
21297;SDS011;10808;48.010;11.326;2022-09-27T05:27:59;1.83;;;0.80;;
21297;SDS011;10808;48.010;11.326;2022-09-27T05:30:25;1.47;;;0.80;;
21297;SDS011;10808;48.010;11.326;2022-09-27T05:32:52;1.48;;;0.80;;
21297;SDS011;10808;48.010;11.326;2022-09-27T05:35:19;1.30;;;0.70;;
21297;SDS011;10808;48.010;11.326;2022-09-27T05:37:52;1.80;;;0.80;;
21297;SDS011;10808;48.010;11.326;2022-09-27T05:40:19;1.50;;;0.60;;
21297;SDS011;10808;48.010;11.326;2022-09-27T05:42:49;1.13;;;0.60;;
21297;SDS011;10808;48.010;11.326;2022-09-27T05:45:16;2.08;;;0.60;;
21297;SDS011;10808;48.010;11.326;2022-09-27T05:47:42;2.50;;;0.60;;
21297;SDS011;10808;48.010;11.326;2022-09-27T05:50:08;1.00;;;0.70;;
21297;SDS011;10808;48.010;11.326;2022-09-27T05:52:34;0.80;;;0.70;;
21297;SDS011;10808;48.010;11.326;2022-09-27T05:55:00;0.63;;;0.60;;
21297;SDS011;10808;48.010;11.326;2022-09-27T05:57:26;1.13;;;0.68;;
21297;SDS011;10808;48.010;11.326;2022-09-27T05:59:52;2.47;;;0.85;;
21297;SDS011;10808;48.010;11.326;2022-09-27T06:02:19;1.40;;;0.80;;
21297;SDS011;10808;48.010;11.326;2022-09-27T06:04:45;1.73;;;0.90;;
21297;SDS011;10808;48.010;11.326;2022-09-27T06:07:11;1.20;;;0.70;;
21297;SDS011;10808;48.010;11.326;2022-09-27T06:09:37;1.77;;;0.70;;
21297;SDS011;10808;48.010;11.326;2022-09-27T06:12:03;1.02;;;0.80;;
21297;SDS011;10808;48.010;11.326;2022-09-27T06:14:29;1.60;;;0.80;;
21297;SDS011;10808;48.010;11.326;2022-09-27T06:16:55;2.33;;;0.70;;
21297;SDS011;10808;48.010;11.326;2022-09-27T06:19:21;1.73;;;0.73;;
21297;SDS011;10808;48.010;11.326;2022-09-27T06:21:50;2.20;;;0.70;;
21297;SDS011;10808;48.010;11.326;2022-09-27T06:24:16;1.67;;;0.90;;
21297;SDS011;10808;48.010;11.326;2022-09-27T06:26:42;1.02;;;0.88;;
21297;SDS011;10808;48.010;11.326;2022-09-27T06:29:10;1.20;;;0.60;;
21297;SDS011;10808;48.010;11.326;2022-09-27T06:31:36;2.17;;;0.90;;
21297;SDS011;10808;48.010;11.326;2022-09-27T06:34:02;1.65;;;0.77;;
21297;SDS011;10808;48.010;11.326;2022-09-27T06:36:28;1.85;;;0.82;;
21297;SDS011;10808;48.010;11.326;2022-09-27T06:38:54;1.55;;;0.70;;
21297;SDS011;10808;48.010;11.326;2022-09-27T06:41:22;1.85;;;0.70;;
21297;SDS011;10808;48.010;11.326;2022-09-27T06:43:48;3.30;;;1.08;;
21297;SDS011;10808;48.010;11.326;2022-09-27T06:46:14;2.22;;;0.80;;
21297;SDS011;10808;48.010;11.326;2022-09-27T06:48:41;2.28;;;1.05;;
21297;SDS011;10808;48.010;11.326;2022-09-27T06:51:07;1.50;;;0.90;;
21297;SDS011;10808;48.010;11.326;2022-09-27T06:53:33;1.23;;;0.87;;
21297;SDS011;10808;48.010;11.326;2022-09-27T06:55:59;1.98;;;0.90;;
21297;SDS011;10808;48.010;11.326;2022-09-27T06:58:27;2.17;;;0.88;;
21297;SDS011;10808;48.010;11.326;2022-09-27T07:01:12;1.30;;;0.70;;
21297;SDS011;10808;48.010;11.326;2022-09-27T07:03:39;1.67;;;0.77;;
21297;SDS011;10808;48.010;11.326;2022-09-27T07:06:11;1.20;;;0.75;;
21297;SDS011;10808;48.010;11.326;2022-09-27T07:08:48;2.23;;;0.80;;
21297;SDS011;10808;48.010;11.326;2022-09-27T07:11:15;2.55;;;0.70;;
21297;SDS011;10808;48.010;11.326;2022-09-27T07:13:41;2.28;;;0.73;;
21297;SDS011;10808;48.010;11.326;2022-09-27T07:16:11;0.75;;;0.65;;
21297;SDS011;10808;48.010;11.326;2022-09-27T07:18:39;1.45;;;0.73;;
21297;SDS011;10808;48.010;11.326;2022-09-27T07:21:06;1.20;;;0.50;;
21297;SDS011;10808;48.010;11.326;2022-09-27T07:23:33;0.73;;;0.60;;
21297;SDS011;10808;48.010;11.326;2022-09-27T07:26:01;1.35;;;0.60;;
21297;SDS011;10808;48.010;11.326;2022-09-27T07:28:31;0.90;;;0.77;;
21297;SDS011;10808;48.010;11.326;2022-09-27T07:30:59;1.35;;;0.65;;
21297;SDS011;10808;48.010;11.326;2022-09-27T07:33:26;0.73;;;0.60;;
21297;SDS011;10808;48.010;11.326;2022-09-27T07:35:53;2.45;;;0.80;;
21297;SDS011;10808;48.010;11.326;2022-09-27T07:38:19;1.55;;;0.68;;
21297;SDS011;10808;48.010;11.326;2022-09-27T07:40:45;0.98;;;0.63;;
21297;SDS011;10808;48.010;11.326;2022-09-27T07:43:12;1.80;;;0.52;;
21297;SDS011;10808;48.010;11.326;2022-09-27T07:45:39;0.80;;;0.50;;
21297;SDS011;10808;48.010;11.326;2022-09-27T07:48:06;1.38;;;0.65;;
21297;SDS011;10808;48.010;11.326;2022-09-27T07:50:35;2.80;;;0.60;;
21297;SDS011;10808;48.010;11.326;2022-09-27T07:53:02;1.70;;;0.50;;
21297;SDS011;10808;48.010;11.326;2022-09-27T07:55:29;1.13;;;0.60;;
21297;SDS011;10808;48.010;11.326;2022-09-27T07:58:02;0.60;;;0.50;;
21297;SDS011;10808;48.010;11.326;2022-09-27T08:00:30;0.88;;;0.52;;
21297;SDS011;10808;48.010;11.326;2022-09-27T08:02:56;2.50;;;1.10;;
21297;SDS011;10808;48.010;11.326;2022-09-27T08:05:22;3.05;;;1.00;;
21297;SDS011;10808;48.010;11.326;2022-09-27T08:07:52;2.70;;;1.63;;
21297;SDS011;10808;48.010;11.326;2022-09-27T08:10:20;2.97;;;1.40;;
21297;SDS011;10808;48.010;11.326;2022-09-27T08:12:49;2.67;;;1.50;;
21297;SDS011;10808;48.010;11.326;2022-09-27T08:15:15;0.90;;;0.52;;
21297;SDS011;10808;48.010;11.326;2022-09-27T08:17:41;1.80;;;1.20;;
21297;SDS011;10808;48.010;11.326;2022-09-27T08:20:07;1.52;;;0.70;;
21297;SDS011;10808;48.010;11.326;2022-09-27T08:22:38;0.85;;;0.60;;
21297;SDS011;10808;48.010;11.326;2022-09-27T08:25:06;0.63;;;0.55;;
21297;SDS011;10808;48.010;11.326;2022-09-27T08:27:32;1.48;;;0.60;;
21297;SDS011;10808;48.010;11.326;2022-09-27T08:29:58;1.80;;;0.60;;
21297;SDS011;10808;48.010;11.326;2022-09-27T08:32:25;1.83;;;0.60;;
21297;SDS011;10808;48.010;11.326;2022-09-27T08:34:53;1.02;;;0.70;;
21297;SDS011;10808;48.010;11.326;2022-09-27T08:37:19;1.33;;;0.70;;
21297;SDS011;10808;48.010;11.326;2022-09-27T08:39:45;1.95;;;0.65;;
21297;SDS011;10808;48.010;11.326;2022-09-27T08:45:00;1.30;;;0.40;;
21297;SDS011;10808;48.010;11.326;2022-09-27T08:47:39;1.02;;;0.50;;
21297;SDS011;10808;48.010;11.326;2022-09-27T08:50:18;1.92;;;0.50;;
21297;SDS011;10808;48.010;11.326;2022-09-27T08:57:56;0.50;;;0.50;;
21297;SDS011;10808;48.010;11.326;2022-09-27T09:00:24;0.65;;;0.60;;
21297;SDS011;10808;48.010;11.326;2022-09-27T09:02:52;0.60;;;0.50;;
21297;SDS011;10808;48.010;11.326;2022-09-27T09:05:27;0.97;;;0.50;;
21297;SDS011;10808;48.010;11.326;2022-09-27T09:27:25;0.63;;;0.60;;
21297;SDS011;10808;48.010;11.326;2022-09-27T09:30:17;0.60;;;0.50;;
21297;SDS011;10808;48.010;11.326;2022-09-27T09:35:44;0.73;;;0.70;;
21297;SDS011;10808;48.010;11.326;2022-09-27T09:41:34;2.00;;;0.82;;
21297;SDS011;10808;48.010;11.326;2022-09-27T09:46:47;1.65;;;0.63;;
21297;SDS011;10808;48.010;11.326;2022-09-27T09:49:22;0.80;;;0.60;;
21297;SDS011;10808;48.010;11.326;2022-09-27T09:51:58;0.60;;;0.60;;
21297;SDS011;10808;48.010;11.326;2022-09-27T09:59:59;0.88;;;0.60;;
21297;SDS011;10808;48.010;11.326;2022-09-27T10:02:46;1.73;;;0.70;;
21297;SDS011;10808;48.010;11.326;2022-09-27T10:05:16;0.82;;;0.63;;
21297;SDS011;10808;48.010;11.326;2022-09-27T10:07:44;0.60;;;0.50;;
21297;SDS011;10808;48.010;11.326;2022-09-27T10:10:14;1.27;;;0.85;;
21297;SDS011;10808;48.010;11.326;2022-09-27T10:12:42;0.83;;;0.60;;
21297;SDS011;10808;48.010;11.326;2022-09-27T10:15:12;2.10;;;0.75;;
21297;SDS011;10808;48.010;11.326;2022-09-27T10:17:43;1.92;;;0.60;;
21297;SDS011;10808;48.010;11.326;2022-09-27T10:20:17;1.35;;;0.70;;
21297;SDS011;10808;48.010;11.326;2022-09-27T10:22:54;1.50;;;0.80;;
21297;SDS011;10808;48.010;11.326;2022-09-27T10:25:27;1.13;;;0.70;;
21297;SDS011;10808;48.010;11.326;2022-09-27T10:28:13;1.00;;;0.70;;
21297;SDS011;10808;48.010;11.326;2022-09-27T10:30:58;1.02;;;0.75;;
21297;SDS011;10808;48.010;11.326;2022-09-27T10:33:26;0.73;;;0.50;;
21297;SDS011;10808;48.010;11.326;2022-09-27T10:35:56;0.70;;;0.60;;
21297;SDS011;10808;48.010;11.326;2022-09-27T10:38:25;1.90;;;0.85;;
21297;SDS011;10808;48.010;11.326;2022-09-27T10:41:16;1.45;;;0.70;;
21297;SDS011;10808;48.010;11.326;2022-09-27T10:43:48;1.73;;;0.70;;
21297;SDS011;10808;48.010;11.326;2022-09-27T10:46:18;1.10;;;0.70;;
21297;SDS011;10808;48.010;11.326;2022-09-27T10:51:48;0.70;;;0.68;;
21297;SDS011;10808;48.010;11.326;2022-09-27T10:54:18;1.45;;;0.70;;
21297;SDS011;10808;48.010;11.326;2022-09-27T10:56:44;1.88;;;0.90;;
21297;SDS011;10808;48.010;11.326;2022-09-27T10:59:21;0.70;;;0.70;;
21297;SDS011;10808;48.010;11.326;2022-09-27T11:01:48;1.20;;;0.98;;
21297;SDS011;10808;48.010;11.326;2022-09-27T11:04:27;1.70;;;0.90;;
21297;SDS011;10808;48.010;11.326;2022-09-27T11:07:14;2.83;;;1.48;;
21297;SDS011;10808;48.010;11.326;2022-09-27T11:09:51;1.13;;;0.90;;
21297;SDS011;10808;48.010;11.326;2022-09-27T11:12:19;2.15;;;1.27;;
21297;SDS011;10808;48.010;11.326;2022-09-27T11:14:50;1.25;;;0.80;;
21297;SDS011;10808;48.010;11.326;2022-09-27T11:20:40;1.63;;;0.93;;
21297;SDS011;10808;48.010;11.326;2022-09-27T11:23:15;1.27;;;1.00;;
21297;SDS011;10808;48.010;11.326;2022-09-27T11:26:03;1.00;;;0.70;;
21297;SDS011;10808;48.010;11.326;2022-09-27T11:31:41;1.00;;;0.70;;
21297;SDS011;10808;48.010;11.326;2022-09-27T11:34:28;0.77;;;0.77;;
21297;SDS011;10808;48.010;11.326;2022-09-27T11:51:30;1.80;;;0.70;;
21297;SDS011;10808;48.010;11.326;2022-09-27T11:56:57;1.17;;;0.80;;
21297;SDS011;10808;48.010;11.326;2022-09-27T12:05:19;1.07;;;0.80;;
21297;SDS011;10808;48.010;11.326;2022-09-27T12:08:17;1.10;;;0.85;;
21297;SDS011;10808;48.010;11.326;2022-09-27T12:11:16;1.33;;;0.90;;
21297;SDS011;10808;48.010;11.326;2022-09-27T12:13:51;1.60;;;0.90;;
21297;SDS011;10808;48.010;11.326;2022-09-27T12:16:20;1.77;;;1.07;;
21297;SDS011;10808;48.010;11.326;2022-09-27T12:18:48;2.28;;;1.30;;
21297;SDS011;10808;48.010;11.326;2022-09-27T12:21:16;2.58;;;1.30;;
21297;SDS011;10808;48.010;11.326;2022-09-27T12:23:48;2.97;;;1.48;;
21297;SDS011;10808;48.010;11.326;2022-09-27T12:26:18;3.00;;;1.20;;
21297;SDS011;10808;48.010;11.326;2022-09-27T12:28:57;3.22;;;1.50;;
21297;SDS011;10808;48.010;11.326;2022-09-27T12:36:36;2.00;;;1.20;;
21297;SDS011;10808;48.010;11.326;2022-09-27T12:39:14;1.23;;;1.08;;
21297;SDS011;10808;48.010;11.326;2022-09-27T12:41:48;2.30;;;1.20;;
21297;SDS011;10808;48.010;11.326;2022-09-27T12:44:20;1.93;;;1.00;;
21297;SDS011;10808;48.010;11.326;2022-09-27T12:52:07;2.72;;;0.90;;
21297;SDS011;10808;48.010;11.326;2022-09-27T12:57:13;1.98;;;0.90;;
21297;SDS011;10808;48.010;11.326;2022-09-27T13:00:04;2.30;;;0.70;;
21297;SDS011;10808;48.010;11.326;2022-09-27T13:03:10;1.40;;;0.80;;
21297;SDS011;10808;48.010;11.326;2022-09-27T13:06:07;2.72;;;0.88;;
21297;SDS011;10808;48.010;11.326;2022-09-27T13:09:20;1.80;;;0.85;;
21297;SDS011;10808;48.010;11.326;2022-09-27T13:14:59;3.35;;;1.10;;
21297;SDS011;10808;48.010;11.326;2022-09-27T13:17:30;1.80;;;0.90;;
21297;SDS011;10808;48.010;11.326;2022-09-27T13:25:59;2.25;;;0.90;;
21297;SDS011;10808;48.010;11.326;2022-09-27T13:31:11;3.28;;;1.10;;
21297;SDS011;10808;48.010;11.326;2022-09-27T13:33:49;2.13;;;1.20;;
21297;SDS011;10808;48.010;11.326;2022-09-27T13:46:51;1.77;;;0.93;;
21297;SDS011;10808;48.010;11.326;2022-09-27T13:49:35;1.10;;;0.75;;
21297;SDS011;10808;48.010;11.326;2022-09-27T13:52:54;1.90;;;0.85;;
21297;SDS011;10808;48.010;11.326;2022-09-27T13:55:02;2.38;;;0.80;;
21297;SDS011;10808;48.010;11.326;2022-09-27T13:58:00;2.47;;;0.70;;
21297;SDS011;10808;48.010;11.326;2022-09-27T14:00:31;1.20;;;0.40;;
21297;SDS011;10808;48.010;11.326;2022-09-27T14:03:05;0.70;;;0.50;;
21297;SDS011;10808;48.010;11.326;2022-09-27T14:05:41;1.73;;;0.57;;
21297;SDS011;10808;48.010;11.326;2022-09-27T14:11:13;0.60;;;0.60;;
21297;SDS011;10808;48.010;11.326;2022-09-27T14:13:43;1.30;;;0.85;;
21297;SDS011;10808;48.010;11.326;2022-09-27T14:16:15;0.60;;;0.50;;
21297;SDS011;10808;48.010;11.326;2022-09-27T14:19:03;0.80;;;0.40;;
21297;SDS011;10808;48.010;11.326;2022-09-27T14:21:33;0.50;;;0.50;;
21297;SDS011;10808;48.010;11.326;2022-09-27T14:27:11;0.67;;;0.57;;
21297;SDS011;10808;48.010;11.326;2022-09-27T14:29:43;0.70;;;0.50;;
21297;SDS011;10808;48.010;11.326;2022-09-27T14:32:24;1.90;;;0.80;;
21297;SDS011;10808;48.010;11.326;2022-09-27T14:38:09;1.02;;;0.50;;
21297;SDS011;10808;48.010;11.326;2022-09-27T14:40:53;1.38;;;0.80;;
21297;SDS011;10808;48.010;11.326;2022-09-27T14:43:22;1.20;;;0.70;;
21297;SDS011;10808;48.010;11.326;2022-09-27T14:45:51;1.00;;;0.70;;
21297;SDS011;10808;48.010;11.326;2022-09-27T14:48:32;2.08;;;1.00;;
21297;SDS011;10808;48.010;11.326;2022-09-27T14:51:14;1.35;;;0.95;;
21297;SDS011;10808;48.010;11.326;2022-09-27T14:53:45;2.65;;;0.90;;
21297;SDS011;10808;48.010;11.326;2022-09-27T14:56:14;1.10;;;0.80;;
21297;SDS011;10808;48.010;11.326;2022-09-27T14:58:48;2.08;;;0.88;;
21297;SDS011;10808;48.010;11.326;2022-09-27T15:01:17;1.30;;;0.80;;
21297;SDS011;10808;48.010;11.326;2022-09-27T15:03:48;1.75;;;0.80;;
21297;SDS011;10808;48.010;11.326;2022-09-27T15:06:17;2.28;;;1.23;;
21297;SDS011;10808;48.010;11.326;2022-09-27T15:08:45;2.17;;;0.88;;
21297;SDS011;10808;48.010;11.326;2022-09-27T15:11:14;2.40;;;0.77;;
21297;SDS011;10808;48.010;11.326;2022-09-27T15:13:42;1.38;;;0.80;;
21297;SDS011;10808;48.010;11.326;2022-09-27T15:16:15;4.40;;;1.10;;
21297;SDS011;10808;48.010;11.326;2022-09-27T15:18:45;3.20;;;1.20;;
21297;SDS011;10808;48.010;11.326;2022-09-27T15:21:14;1.63;;;1.02;;
21297;SDS011;10808;48.010;11.326;2022-09-27T15:23:52;2.08;;;1.15;;
21297;SDS011;10808;48.010;11.326;2022-09-27T15:26:24;1.93;;;1.30;;
21297;SDS011;10808;48.010;11.326;2022-09-27T15:29:00;1.48;;;0.90;;
21297;SDS011;10808;48.010;11.326;2022-09-27T15:31:31;2.47;;;1.42;;
21297;SDS011;10808;48.010;11.326;2022-09-27T15:34:14;2.13;;;1.20;;
21297;SDS011;10808;48.010;11.326;2022-09-27T15:37:02;1.80;;;1.00;;
21297;SDS011;10808;48.010;11.326;2022-09-27T15:39:34;1.92;;;0.90;;
21297;SDS011;10808;48.010;11.326;2022-09-27T15:50:30;2.10;;;0.80;;
21297;SDS011;10808;48.010;11.326;2022-09-27T15:52:52;1.95;;;0.82;;
21297;SDS011;10808;48.010;11.326;2022-09-27T15:55:25;3.45;;;1.30;;
21297;SDS011;10808;48.010;11.326;2022-09-27T15:57:59;1.50;;;0.90;;
21297;SDS011;10808;48.010;11.326;2022-09-27T16:00:32;2.80;;;0.95;;
21297;SDS011;10808;48.010;11.326;2022-09-27T16:03:00;0.80;;;0.70;;
21297;SDS011;10808;48.010;11.326;2022-09-27T16:05:26;1.20;;;0.90;;
21297;SDS011;10808;48.010;11.326;2022-09-27T16:07:54;1.45;;;0.85;;
21297;SDS011;10808;48.010;11.326;2022-09-27T16:10:34;1.55;;;1.10;;
21297;SDS011;10808;48.010;11.326;2022-09-27T16:13:02;1.67;;;0.98;;
21297;SDS011;10808;48.010;11.326;2022-09-27T16:15:28;2.63;;;1.00;;
21297;SDS011;10808;48.010;11.326;2022-09-27T16:17:55;1.52;;;0.90;;
21297;SDS011;10808;48.010;11.326;2022-09-27T16:20:23;1.95;;;0.98;;
21297;SDS011;10808;48.010;11.326;2022-09-27T16:22:51;1.70;;;0.90;;
21297;SDS011;10808;48.010;11.326;2022-09-27T16:25:19;2.30;;;1.00;;
21297;SDS011;10808;48.010;11.326;2022-09-27T16:27:46;2.70;;;1.17;;
21297;SDS011;10808;48.010;11.326;2022-09-27T16:30:13;2.03;;;1.20;;
21297;SDS011;10808;48.010;11.326;2022-09-27T16:32:43;2.40;;;1.10;;
21297;SDS011;10808;48.010;11.326;2022-09-27T16:35:11;2.10;;;1.20;;
21297;SDS011;10808;48.010;11.326;2022-09-27T16:37:39;4.22;;;1.10;;
21297;SDS011;10808;48.010;11.326;2022-09-27T16:40:06;1.88;;;1.20;;
21297;SDS011;10808;48.010;11.326;2022-09-27T16:42:34;1.30;;;1.00;;
21297;SDS011;10808;48.010;11.326;2022-09-27T16:45:02;1.98;;;1.40;;
21297;SDS011;10808;48.010;11.326;2022-09-27T16:47:29;2.00;;;1.10;;
21297;SDS011;10808;48.010;11.326;2022-09-27T16:49:55;1.95;;;1.02;;
21297;SDS011;10808;48.010;11.326;2022-09-27T16:52:39;2.03;;;1.17;;
21297;SDS011;10808;48.010;11.326;2022-09-27T16:55:08;1.30;;;1.10;;
21297;SDS011;10808;48.010;11.326;2022-09-27T16:57:34;1.40;;;1.10;;
21297;SDS011;10808;48.010;11.326;2022-09-27T17:00:02;2.30;;;1.65;;
21297;SDS011;10808;48.010;11.326;2022-09-27T17:02:29;1.70;;;1.08;;
21297;SDS011;10808;48.010;11.326;2022-09-27T17:04:57;1.50;;;1.10;;
21297;SDS011;10808;48.010;11.326;2022-09-27T17:07:23;2.58;;;1.13;;
21297;SDS011;10808;48.010;11.326;2022-09-27T17:09:49;3.88;;;2.00;;
21297;SDS011;10808;48.010;11.326;2022-09-27T17:12:16;2.30;;;1.50;;
21297;SDS011;10808;48.010;11.326;2022-09-27T17:14:42;4.25;;;1.95;;
21297;SDS011;10808;48.010;11.326;2022-09-27T17:17:08;2.00;;;1.00;;
21297;SDS011;10808;48.010;11.326;2022-09-27T17:19:34;1.90;;;1.50;;
21297;SDS011;10808;48.010;11.326;2022-09-27T17:22:02;1.80;;;1.40;;
21297;SDS011;10808;48.010;11.326;2022-09-27T17:24:28;1.23;;;0.90;;
21297;SDS011;10808;48.010;11.326;2022-09-27T17:26:54;1.55;;;1.00;;
21297;SDS011;10808;48.010;11.326;2022-09-27T17:29:20;2.00;;;0.90;;
21297;SDS011;10808;48.010;11.326;2022-09-27T17:31:46;2.30;;;1.02;;
21297;SDS011;10808;48.010;11.326;2022-09-27T17:34:12;2.13;;;1.73;;
21297;SDS011;10808;48.010;11.326;2022-09-27T17:36:40;1.90;;;1.30;;
21297;SDS011;10808;48.010;11.326;2022-09-27T17:39:13;1.90;;;1.30;;
21297;SDS011;10808;48.010;11.326;2022-09-27T17:41:41;2.85;;;1.70;;